Aérodrome :
LOGIN :

S'inscrire | Disclaimer

   EN    FR    IT 

 










Légende :    VFR   VFR Marginal   IFR   IFR Intensif   IFR Très Intensif
Visi : 
Plafond : 
>= 8 km
>= 3000ft
5 à 8 km
1000 à 3000 ft
1500m à 5 km
500 à 1000 ft
800 à 1500m
200 à 500 ft
< 800m
< 200 ft
Symboles :   Orages  Brouillard  Fortes neiges  Fortes précipitations  Vent > 20 kt
SIGMETs :   Divers  Orages  Givrage  Turbulence  Onde Orograph.  Cendres Volcan.







- Altitude de l'aérodrome : 83 ft
- Code IATA : LHR
- Voir les cartes d'approche


EGLL - London Heathrow

DERNIER METAR :
  • 210820Z AUTO 03004KT 330V080 9999 NCD 17/10 Q1017 NOSIG

METARs EXPIRÉS :
  • 210750Z AUTO 07004KT 030V110 9000 NCD 16/10 Q1017 NOSIG
  • 210720Z AUTO 06004KT 020V100 8000 NCD 14/10 Q1017 NOSIG
  • 210650Z AUTO VRB03KT 7000 NCD 12/09 Q1017 NOSIG
  • 210620Z AUTO VRB03KT 6000 NCD 11/08 Q1018
  • 210550Z AUTO VRB02KT 6000 NCD 11/08 Q1018

TAF TAF EGLL
Valide du 21 à 06h jusqu'au 22 à 12h UTC


210456Z 2106/2212 04006KT 4500 HZ FEW045
BECMG 2106/2109 9999 NSW
PROB40
TEMPO 2113/2118 4000 +TSRA
Pas de NOTAMs connus pour ce terrain.



MET'MAP, la Météo Aéronautique d'un coup d'oeil ! - Copyright ORBIFLY Décembre 2007 - Disclaimer

ORBIFLY MET'MAP TEAM :

Programmation & Développement : Alexandra Zaïnal
Conception & Développement : Baudouin d'Aumeries
Co-Programmation & Développement : Marc-Olivier Méhu
Soutien technique & logistique : Manuel Goepfert

Contact : metmap@orbifly.com




SOURCES & CREDITS :

   NOAA